Time;durP1;ratioP1;P1;durP2;ratioP2;P2;SDS_P1;SDS_P2;PMS_P1;PMS_P2;Temp;Humidity;BMP_temperature;BMP_pressure;BME280_temperature;BME280_humidity;BME280_pressure;Samples;Min_cycle;Max_cycle;Signal;HPM_P1;HPM_P2
2022/06/08 00:00:47;;;;;;;;;2.80;2.00;;;;;18.64;100.00;100744.66;6320522;22;45552;-89
2022/06/08 00:03:20;;;;;;;;;2.80;2.60;;;;;18.65;100.00;100753.56;6318049;22;44638;-90
2022/06/08 00:05:46;;;;;;;;;2.20;2.20;;;;;18.66;100.00;100747.19;6288020;22;44685;-90
2022/06/08 00:08:12;;;;;;;;;4.00;2.40;;;;;18.64;100.00;100733.91;6315778;22;44868;-90
2022/06/08 00:10:40;;;;;;;;;4.75;3.50;;;;;18.63;100.00;100726.81;6290141;22;45460;-87
2022/06/08 00:13:07;;;;;;;;;1.40;1.40;;;;;18.62;100.00;100729.69;6315712;22;45165;-89
2022/06/08 00:15:33;;;;;;;;;4.00;2.80;;;;;18.60;100.00;100712.81;6316122;22;45372;-90
2022/06/08 00:17:59;;;;;;;;;3.00;2.00;;;;;18.59;100.00;100705.75;6288915;22;44833;-86
2022/06/08 00:20:24;;;;;;;;;3.00;3.00;;;;;18.55;100.00;100705.22;6314574;22;44963;-85
2022/06/08 00:22:50;;;;;;;;;2.25;0.00;;;;;18.54;100.00;100708.91;6312587;22;44707;-85
2022/06/08 00:25:16;;;;;;;;;3.75;2.00;;;;;18.53;100.00;100704.53;6315951;22;44682;-90
2022/06/08 00:27:42;;;;;;;;;2.75;1.25;;;;;18.53;100.00;100699.16;6318821;22;45310;-89
2022/06/08 00:30:09;;;;;;;;;2.00;2.00;;;;;18.51;100.00;100698.47;6289366;22;46687;-90
2022/06/08 00:32:35;;;;;;;;;4.00;3.00;;;;;18.47;100.00;100703.31;6316590;22;44613;-92
2022/06/08 00:35:01;;;;;;;;;2.00;2.00;;;;;18.44;100.00;100705.47;6317345;22;44743;-90
2022/06/08 00:37:28;;;;;;;;;2.00;2.00;;;;;18.43;100.00;100701.09;6288573;22;45524;-90
2022/06/08 00:39:53;;;;;;;;;3.00;1.80;;;;;18.42;100.00;100696.69;6281053;22;46949;-85
2022/06/08 00:42:20;;;;;;;;;2.00;2.00;;;;;18.40;100.00;100690.63;6279452;22;44729;-85
2022/06/08 00:44:56;;;;;;;;;5.00;2.60;;;;;18.38;100.00;100687.25;6308203;22;45181;-85
2022/06/08 00:47:28;;;;;;;;;3.40;1.20;;;;;18.36;100.00;100683.88;6308616;22;44748;-85
2022/06/08 00:50:01;;;;;;;;;2.80;2.00;;;;;18.32;100.00;100680.63;6310434;22;45317;-85
2022/06/08 00:52:29;;;;;;;;;2.00;2.00;;;;;18.29;100.00;100672.88;6308958;22;44796;-85
2022/06/08 00:54:59;;;;;;;;;4.40;2.60;;;;;18.24;100.00;100681.41;6315442;22;44785;-86
2022/06/08 00:57:36;;;;;;;;;5.40;2.60;;;;;18.20;100.00;100680.03;6322657;22;45432;-87
2022/06/08 01:00:12;;;;;;;;;2.00;2.00;;;;;18.14;100.00;100674.44;6322910;22;45171;-87
2022/06/08 01:02:38;;;;;;;;;2.40;2.40;;;;;18.11;100.00;100674.72;6325924;22;44694;-86
2022/06/08 01:05:16;;;;;;;;;3.00;1.80;;;;;18.04;100.00;100665.59;6323780;22;44724;-85
2022/06/08 01:07:42;;;;;;;;;4.00;2.80;;;;;17.98;100.00;100667.03;6299837;22;45423;-87
2022/06/08 01:10:15;;;;;;;;;4.50;2.50;;;;;17.91;100.00;100676.72;6324041;22;45307;-87
2022/06/08 01:12:41;;;;;;;;;2.00;2.00;;;;;17.87;100.00;100676.16;6317584;22;44730;-85
2022/06/08 01:15:10;;;;;;;;;5.00;2.20;;;;;17.82;100.00;100670.41;6314113;22;45218;-85
2022/06/08 01:17:36;;;;;;;;;9.00;1.80;;;;;17.78;100.00;100663.63;6312186;22;45100;-84
2022/06/08 01:20:01;;;;;;;;;2.00;2.00;;;;;17.75;100.00;100668.47;6306722;22;45282;-83
2022/06/08 01:22:26;;;;;;;;;2.00;2.00;;;;;17.70;100.00;100661.69;6316320;22;44600;-84
2022/06/08 01:24:53;;;;;;;;;2.00;2.00;;;;;17.68;100.00;100666.34;6311756;22;44813;-84
2022/06/08 01:27:40;;;;;;;;;4.00;2.60;;;;;17.66;100.00;100676.41;6281259;22;44760;-85
2022/06/08 01:30:20;;;;;;;;;5.20;3.00;;;;;17.63;100.00;100671.31;6307591;22;45033;-85
2022/06/08 01:33:16;;;;;;;;;2.40;2.40;;;;;17.64;100.00;100653.34;6310408;22;44685;-88
2022/06/08 01:35:57;;;;;;;;;3.40;2.40;;;;;17.62;100.00;100648.13;6316546;22;45233;-86
2022/06/08 01:38:58;;;;;;;;;5.40;2.40;;;;;17.62;100.00;100663.41;6316729;22;44739;-86
2022/06/08 01:41:32;;;;;;;;;4.20;3.20;;;;;17.62;100.00;100664.25;6320348;22;45325;-88
2022/06/08 01:44:14;;;;;;;;;4.00;2.00;;;;;17.61;100.00;100649.16;6312152;22;45338;-86
2022/06/08 01:46:50;;;;;;;;;3.00;2.20;;;;;17.63;100.00;100651.66;6314215;22;44665;-86
2022/06/08 01:49:32;;;;;;;;;3.40;3.00;;;;;17.60;100.00;100668.94;6319141;22;44782;-88
2022/06/08 01:52:14;;;;;;;;;4.40;3.00;;;;;17.57;100.00;100674.63;6320158;22;45070;-85
2022/06/08 01:54:59;;;;;;;;;2.40;2.40;;;;;17.56;100.00;100677.47;6312861;22;45360;-85
2022/06/08 01:57:34;;;;;;;;;2.00;2.00;;;;;17.53;100.00;100675.91;6311910;22;44798;-85
2022/06/08 02:00:14;;;;;;;;;2.00;2.00;;;;;17.50;100.00;100676.19;6315341;22;44798;-85
2022/06/08 02:02:45;;;;;;;;;4.00;2.00;;;;;17.51;100.00;100667.16;6314661;22;45239;-85
2022/06/08 02:05:42;;;;;;;;;4.60;2.40;;;;;17.51;100.00;100660.94;6318597;22;44759;-89
2022/06/08 02:08:46;;;;;;;;;3.60;3.00;;;;;17.49;100.00;100661.06;6315662;22;44642;-88
2022/06/08 02:11:44;;;;;;;;;3.80;3.80;;;;;17.45;100.00;100651.63;6160789;23;45266;-87
2022/06/08 02:14:17;;;;;;;;;2.60;2.00;;;;;17.42;100.00;100647.41;6182560;23;45106;-83
2022/06/08 02:16:46;;;;;;;;;5.00;2.80;;;;;17.38;100.00;100653.22;6163790;23;45381;-83
2022/06/08 02:19:18;;;;;;;;;3.40;2.80;;;;;17.28;100.00;100647.06;6162637;23;44644;-83
2022/06/08 02:22:06;;;;;;;;;2.80;2.20;;;;;17.23;100.00;100644.81;6188043;23;44646;-83
2022/06/08 02:24:44;;;;;;;;;6.40;3.00;;;;;17.16;100.00;100639.19;6157971;23;46573;-82
2022/06/08 02:27:19;;;;;;;;;4.00;2.00;;;;;17.09;100.00;100654.19;6186620;23;44688;-83
2022/06/08 02:30:02;;;;;;;;;5.00;2.00;;;;;17.04;100.00;100661.00;6187900;23;44805;-83
2022/06/08 02:35:23;;;;;;;;;4.00;3.00;;;;;16.88;100.00;100664.28;6186147;23;45414;-83
2022/06/08 02:37:52;;;;;;;;;3.20;2.20;;;;;16.81;100.00;100664.00;6181928;23;45252;-84
2022/06/08 02:40:26;;;;;;;;;7.00;2.40;;;;;16.74;100.00;100657.53;6154799;23;44713;-85
2022/06/08 02:43:03;;;;;;;;;3.20;0.00;;;;;16.67;100.00;100661.75;6185647;23;44735;-86
2022/06/08 02:45:40;;;;;;;;;2.60;2.20;;;;;16.59;100.00;100661.63;6164598;23;45485;-93
2022/06/08 02:48:28;;;;;;;;;6.40;4.00;;;;;16.50;100.00;100666.03;6257279;22;44808;-93
2022/06/08 02:51:00;;;;;;;;;5.80;2.00;;;;;16.42;100.00;100657.84;6284854;22;44863;-91
2022/06/08 02:53:31;;;;;;;;;4.60;2.80;;;;;16.32;100.00;100663.19;6324820;22;44912;-92
2022/06/08 02:56:29;;;;;;;;;2.00;2.00;;;;;16.29;100.00;100641.19;6324415;22;45230;-93
2022/06/08 02:59:26;;;;;;;;;3.60;2.20;;;;;16.22;100.00;100648.94;6331160;22;44693;-92
2022/06/08 03:02:41;;;;;;;;;2.60;2.60;;;;;16.16;100.00;100644.16;6303192;22;44531;-92
2022/06/08 03:05:15;;;;;;;;;7.40;3.00;;;;;16.17;100.00;100645.84;6324415;22;45123;-93
2022/06/08 03:08:16;;;;;;;;;1.60;1.60;;;;;16.12;100.00;100640.91;6326645;22;45063;-95
2022/06/08 03:10:49;;;;;;;;;3.00;3.00;;;;;16.09;100.00;100638.50;6272518;22;45343;-93
2022/06/08 03:13:33;;;;;;;;;3.60;3.60;;;;;16.07;100.00;100640.50;6326472;22;44692;-90
2022/06/08 03:16:04;;;;;;;;;3.40;2.80;;;;;16.11;100.00;100633.03;6315609;22;45229;-88
2022/06/08 03:18:29;;;;;;;;;4.40;4.00;;;;;16.04;100.00;100624.69;6277760;22;45507;-87
2022/06/08 03:20:57;;;;;;;;;3.50;3.00;;;;;16.04;100.00;100622.00;6278947;22;44760;-87
2022/06/08 03:23:23;;;;;;;;;3.60;3.00;;;;;16.01;100.00;100610.75;6307736;22;45386;-86
2022/06/08 03:25:49;;;;;;;;;5.00;3.00;;;;;16.03;100.00;100596.19;6310185;22;45183;-87
2022/06/08 03:28:16;;;;;;;;;6.00;5.00;;;;;16.03;100.00;100590.00;6288338;22;46435;-86
2022/06/08 03:30:43;;;;;;;;;2.60;2.60;;;;;16.03;100.00;100592.66;6313579;22;44759;-86
2022/06/08 03:33:09;;;;;;;;;5.60;3.40;;;;;16.02;100.00;100593.66;6316175;22;44621;-87
2022/06/08 03:35:36;;;;;;;;;3.80;3.00;;;;;15.99;100.00;100592.09;6325530;22;44815;-86
2022/06/08 03:38:02;;;;;;;;;4.40;2.80;;;;;15.99;100.00;100584.06;6319751;22;45257;-86
2022/06/08 03:40:28;;;;;;;;;4.20;1.60;;;;;15.99;100.00;100580.53;6325807;22;44906;-88
2022/06/08 03:42:54;;;;;;;;;3.75;3.75;;;;;15.97;100.00;100580.69;6324252;22;44753;-87
2022/06/08 03:45:20;;;;;;;;;6.20;3.00;;;;;16.01;100.00;100578.59;6328250;22;44756;-89
2022/06/08 03:47:48;;;;;;;;;2.50;2.50;;;;;15.97;100.00;100579.84;6273087;22;44996;-90
2022/06/08 03:50:17;;;;;;;;;4.00;4.00;;;;;15.98;100.00;100581.53;6315130;22;44721;-87
2022/06/08 03:52:54;;;;;;;;;2.80;2.80;;;;;15.94;100.00;100578.28;6331834;22;44756;-87
2022/06/08 03:55:21;;;;;;;;;3.20;3.20;;;;;15.97;100.00;100583.38;6299422;22;44899;-86
2022/06/08 03:57:49;;;;;;;;;9.60;3.60;;;;;15.95;100.00;100585.31;6263009;22;45425;-87
2022/06/08 04:00:16;;;;;;;;;4.00;3.80;;;;;15.92;100.00;100577.59;6282975;22;44657;-87
2022/06/08 04:02:43;;;;;;;;;4.00;4.00;;;;;15.94;100.00;100589.00;6312738;22;44767;-86
2022/06/08 04:05:09;;;;;;;;;7.20;4.40;;;;;15.93;100.00;100580.13;6316028;22;45226;-85
2022/06/08 04:07:34;;;;;;;;;4.00;3.00;;;;;15.99;100.00;100583.22;6285489;22;47093;-86
2022/06/08 04:10:00;;;;;;;;;4.50;4.50;;;;;16.01;100.00;100584.78;6317880;22;45254;-87
2022/06/08 04:12:26;;;;;;;;;8.00;3.40;;;;;16.02;100.00;100578.44;6297744;22;45329;-87
2022/06/08 04:14:52;;;;;;;;;4.00;4.00;;;;;16.04;100.00;100575.59;6325632;22;44717;-88
2022/06/08 04:17:18;;;;;;;;;3.60;3.60;;;;;16.04;100.00;100576.44;6317770;22;45088;-89
2022/06/08 04:19:47;;;;;;;;;4.25;3.25;;;;;16.04;100.00;100568.41;6314474;22;44624;-87
2022/06/08 04:22:14;;;;;;;;;5.80;3.20;;;;;16.04;100.00;100570.25;6323756;22;45309;-89
2022/06/08 04:24:40;;;;;;;;;6.40;3.20;;;;;16.03;100.00;100566.72;6298040;22;44844;-87
2022/06/08 04:27:05;;;;;;;;;2.25;2.25;;;;;15.98;100.00;100563.63;6320835;22;45523;-88
2022/06/08 04:29:31;;;;;;;;;7.25;4.50;;;;;15.97;100.00;100558.41;6317974;22;45372;-88
2022/06/08 04:31:57;;;;;;;;;6.25;3.00;;;;;15.96;100.00;100554.06;6318798;22;45249;-90
2022/06/08 04:34:29;;;;;;;;;4.25;4.00;;;;;15.97;100.00;100556.56;6288250;22;44899;-86
2022/06/08 04:36:54;;;;;;;;;6.00;4.00;;;;;15.93;100.00;100544.44;6283061;22;46632;-85
2022/06/08 04:39:19;;;;;;;;;4.50;3.25;;;;;15.93;100.00;100542.59;6291714;22;45091;-88
2022/06/08 04:41:45;;;;;;;;;5.50;4.00;;;;;15.93;100.00;100534.56;6317978;22;45254;-87
2022/06/08 04:44:10;;;;;;;;;4.25;2.00;;;;;15.93;100.00;100539.09;6294311;22;45288;-87
2022/06/08 04:46:37;;;;;;;;;3.00;3.00;;;;;15.87;100.00;100537.81;6321524;22;45537;-88
2022/06/08 04:49:03;;;;;;;;;6.20;4.40;;;;;15.92;100.00;100540.94;6325234;22;44688;-88
2022/06/08 04:51:29;;;;;;;;;5.60;3.00;;;;;15.89;100.00;100545.72;6298827;22;44697;-89
2022/06/08 04:53:55;;;;;;;;;6.00;4.80;;;;;15.89;100.00;100538.50;6322205;22;45380;-88
2022/06/08 04:56:21;;;;;;;;;5.60;2.80;;;;;15.90;100.00;100534.00;6294532;22;45075;-91
2022/06/08 04:58:46;;;;;;;;;4.25;4.25;;;;;15.87;100.00;100520.91;6299429;22;44748;-88
2022/06/08 05:01:15;;;;;;;;;11.00;4.25;;;;;15.91;100.00;100533.03;6296902;22;45285;-89
2022/06/08 05:03:42;;;;;;;;;4.00;3.40;;;;;15.86;100.00;100529.94;6325006;22;44792;-90
2022/06/08 05:06:07;;;;;;;;;6.20;4.60;;;;;15.85;100.00;100526.38;6294722;22;45315;-90
2022/06/08 05:08:36;;;;;;;;;5.25;4.50;;;;;15.82;100.00;100525.84;6294686;22;44705;-89
2022/06/08 05:11:19;;;;;;;;;5.20;4.00;;;;;15.82;100.00;100529.38;6300340;22;44611;-89
2022/06/08 05:13:48;;;;;;;;;5.80;4.40;;;;;15.80;100.00;100523.28;6319152;22;44792;-90
2022/06/08 05:16:15;;;;;;;;;4.00;4.00;;;;;15.76;100.00;100527.28;6326750;22;45209;-89
2022/06/08 05:18:40;;;;;;;;;6.80;4.40;;;;;15.77;100.00;100510.19;6295500;22;44677;-90
2022/06/08 05:21:06;;;;;;;;;5.25;3.00;;;;;15.77;100.00;100523.59;6321605;22;44687;-89
2022/06/08 05:23:37;;;;;;;;;2.25;2.25;;;;;15.78;100.00;100522.59;6316178;22;44760;-90
2022/06/08 05:26:02;;;;;;;;;4.40;3.00;;;;;15.72;100.00;100514.28;6320009;22;45196;-88
2022/06/08 05:28:29;;;;;;;;;3.25;3.25;;;;;15.71;100.00;100516.09;6294407;22;45144;-89
2022/06/08 05:30:56;;;;;;;;;4.00;2.00;;;;;15.67;100.00;100506.69;6320613;22;44617;-91
2022/06/08 05:33:26;;;;;;;;;6.20;4.40;;;;;15.67;100.00;100510.19;6313747;22;44785;-92
2022/06/08 05:35:52;;;;;;;;;3.60;3.20;;;;;15.68;100.00;100497.66;6311219;22;45015;-89
2022/06/08 05:38:18;;;;;;;;;5.40;3.00;;;;;15.70;100.00;100511.75;6315396;22;44790;-90
2022/06/08 05:40:44;;;;;;;;;4.80;3.00;;;;;15.65;100.00;100508.63;6287152;22;45227;-91
2022/06/08 05:43:12;;;;;;;;;6.25;4.00;;;;;15.67;100.00;100514.72;6315677;22;44838;-89
2022/06/08 05:45:39;;;;;;;;;1.00;1.00;;;;;15.65;100.00;100501.44;6312460;22;45312;-90
2022/06/08 05:48:06;;;;;;;;;4.00;4.00;;;;;15.65;100.00;100503.28;6310984;22;44560;-92
2022/06/08 05:50:32;;;;;;;;;3.00;3.00;;;;;15.68;100.00;100508.38;6313548;22;44730;-91
2022/06/08 05:52:58;;;;;;;;;3.00;3.00;;;;;15.68;100.00;100498.50;6294531;22;44831;-90
2022/06/08 05:55:25;;;;;;;;;5.00;4.25;;;;;15.71;100.00;100507.22;6328569;22;45142;-89
2022/06/08 05:57:51;;;;;;;;;3.40;3.40;;;;;15.66;100.00;100502.28;6319234;22;44751;-90
2022/06/08 06:00:23;;;;;;;;;5.50;4.00;;;;;15.60;100.00;100500.16;6318928;22;44772;-92
2022/06/08 06:02:49;;;;;;;;;3.40;3.00;;;;;15.62;100.00;100506.22;6322744;22;44662;-90
2022/06/08 06:05:18;;;;;;;;;3.75;2.25;;;;;15.62;100.00;100501.72;6324415;22;46874;-90
2022/06/08 06:07:44;;;;;;;;;3.80;3.80;;;;;15.64;100.00;100510.47;6325552;22;44558;-92
2022/06/08 06:10:11;;;;;;;;;6.25;5.25;;;;;15.65;100.00;100506.81;6325050;22;44647;-89
2022/06/08 06:12:37;;;;;;;;;4.60;4.00;;;;;15.65;100.00;100505.97;6322502;22;44674;-91
2022/06/08 06:15:03;;;;;;;;;5.50;3.00;;;;;15.63;100.00;100508.78;6321380;22;45171;-91
2022/06/08 06:17:29;;;;;;;;;4.00;4.00;;;;;15.65;100.00;100516.69;6297445;22;44619;-91
2022/06/08 06:19:56;;;;;;;;;6.00;3.00;;;;;15.64;100.00;100512.31;6333676;22;44689;-91
2022/06/08 06:22:21;;;;;;;;;4.20;3.40;;;;;15.61;100.00;100516.06;6303726;22;44855;-89
2022/06/08 06:24:47;;;;;;;;;3.00;2.50;;;;;15.64;100.00;100515.84;6318361;22;46610;-91
2022/06/08 06:27:12;;;;;;;;;2.50;2.50;;;;;15.64;100.00;100513.16;6317281;22;44547;-91
2022/06/08 06:29:38;;;;;;;;;3.25;3.25;;;;;15.59;100.00;100511.84;6314278;22;44828;-90
2022/06/08 06:32:13;;;;;;;;;5.00;4.00;;;;;15.60;100.00;100510.88;6312498;22;44894;-91
2022/06/08 06:38:00;;;;;;;;;2.60;2.60;;;;;15.58;100.00;100516.38;6311463;22;44738;-92
2022/06/08 06:40:25;;;;;;;;;3.25;3.25;;;;;15.58;100.00;100523.56;6311537;22;45389;-90
2022/06/08 06:42:51;;;;;;;;;5.25;3.75;;;;;15.56;100.00;100521.00;6311719;22;45210;-90
2022/06/08 06:45:17;;;;;;;;;4.75;3.00;;;;;15.57;100.00;100524.53;6262461;22;46871;-92
2022/06/08 06:47:43;;;;;;;;;4.20;3.20;;;;;15.58;100.00;100527.06;6325814;22;45122;-91
2022/06/08 06:50:11;;;;;;;;;2.50;2.00;;;;;15.59;100.00;100522.56;6290703;22;44862;-90
2022/06/08 06:52:37;;;;;;;;;2.00;2.00;;;;;15.57;100.00;100530.75;6314330;22;44614;-91
2022/06/08 06:55:04;;;;;;;;;2.00;2.00;;;;;15.61;100.00;100531.28;6311876;22;45221;-92
2022/06/08 06:57:29;;;;;;;;;1.40;1.40;;;;;15.56;100.00;100525.50;6258092;22;44689;-91
2022/06/08 06:59:54;;;;;;;;;2.50;2.50;;;;;15.54;100.00;100531.03;6316866;22;44967;-91
2022/06/08 07:02:21;;;;;;;;;1.25;1.00;;;;;15.55;100.00;100535.38;6321677;22;44806;-90
2022/06/08 07:05:32;;;;;;;;;2.00;2.00;;;;;15.54;100.00;100527.50;6295946;22;45201;-90
2022/06/08 07:07:59;;;;;;;;;2.00;2.00;;;;;15.52;100.00;100522.28;6320208;22;44828;-90
2022/06/08 07:10:24;;;;;;;;;5.20;3.00;;;;;15.50;100.00;100524.25;6321413;22;45200;-90
2022/06/08 07:12:50;;;;;;;;;2.00;2.00;;;;;15.53;100.00;100526.66;6323138;22;44892;-90
2022/06/08 07:15:18;;;;;;;;;2.00;2.00;;;;;15.53;100.00;100523.97;6325269;22;45053;-89
2022/06/08 07:17:44;;;;;;;;;2.20;2.20;;;;;15.56;100.00;100539.75;6297730;22;44849;-88
2022/06/08 07:20:11;;;;;;;;;2.00;1.00;;;;;15.55;100.00;100532.69;6297604;22;44621;-89
2022/06/08 07:22:37;;;;;;;;;2.80;1.00;;;;;15.54;100.00;100540.88;6293035;22;44894;-90
2022/06/08 07:25:05;;;;;;;;;1.20;1.20;;;;;15.55;100.00;100542.56;6318267;22;45424;-91
2022/06/08 07:27:31;;;;;;;;;2.60;1.00;;;;;15.58;100.00;100540.47;6290758;22;44678;-88
2022/06/08 07:29:56;;;;;;;;;3.75;1.00;;;;;15.60;100.00;100540.31;6319446;22;44775;-89
2022/06/08 07:32:21;;;;;;;;;2.00;1.75;;;;;15.63;100.00;100546.28;6316679;22;45143;-90
2022/06/08 07:34:47;;;;;;;;;2.50;2.50;;;;;15.67;100.00;100538.81;6313622;22;45336;-84
2022/06/08 07:37:12;;;;;;;;;1.00;1.00;;;;;15.72;100.00;100531.22;6305945;22;45386;-84
2022/06/08 07:39:39;;;;;;;;;2.00;2.00;;;;;15.76;100.00;100539.78;6306293;22;44649;-84
2022/06/08 07:42:06;;;;;;;;;3.20;3.00;;;;;15.82;100.00;100533.88;6307242;22;45198;-89
2022/06/08 07:44:35;;;;;;;;;2.20;2.20;;;;;15.89;100.00;100532.31;6324724;22;45187;-91
2022/06/08 07:47:00;;;;;;;;;3.00;1.60;;;;;16.01;100.00;100535.72;6322344;22;44709;-89
2022/06/08 07:49:49;;;;;;;;;1.75;1.00;;;;;16.06;100.00;100541.47;6315278;22;44963;-90
2022/06/08 07:52:19;;;;;;;;;4.00;2.00;;;;;16.17;100.00;100536.81;6316469;22;45459;-88
2022/06/08 07:54:45;;;;;;;;;3.00;2.00;;;;;16.31;100.00;100530.16;6318188;22;45286;-90
2022/06/08 07:57:22;;;;;;;;;2.20;2.20;;;;;16.47;100.00;100531.38;6313803;22;45288;-89
2022/06/08 07:59:48;;;;;;;;;2.20;2.20;;;;;16.53;100.00;100531.63;6319060;22;45172;-88
2022/06/08 08:02:14;;;;;;;;;0.75;0.75;;;;;16.55;100.00;100524.28;6324095;22;44931;-88
2022/06/08 08:04:40;;;;;;;;;2.20;1.60;;;;;16.59;100.00;100517.66;6317188;22;45418;-89
2022/06/08 08:07:05;;;;;;;;;2.00;1.25;;;;;16.64;100.00;100512.69;6311673;22;44717;-89
2022/06/08 08:09:33;;;;;;;;;0.00;0.00;;;;;16.71;100.00;100515.59;6312306;22;44629;-89
2022/06/08 08:12:00;;;;;;;;;0.40;0.40;;;;;16.87;100.00;100509.63;6316489;22;44846;-88
2022/06/08 08:14:33;;;;;;;;;2.40;1.00;;;;;17.02;100.00;100501.91;6316992;22;45262;-88
2022/06/08 08:17:00;;;;;;;;;1.00;1.00;;;;;17.36;100.00;100508.38;6284026;22;44717;-89
2022/06/08 08:19:26;;;;;;;;;0.00;0.00;;;;;17.65;100.00;100504.63;6284476;22;45282;-87
2022/06/08 08:21:52;;;;;;;;;0.00;0.00;;;;;17.78;100.00;100494.34;6318035;22;45297;-89
2022/06/08 08:24:19;;;;;;;;;3.00;1.00;;;;;18.05;100.00;100484.47;6321368;22;45305;-88
2022/06/08 08:26:47;;;;;;;;;0.80;0.80;;;;;18.35;100.00;100489.38;6322843;22;44592;-88
2022/06/08 08:29:13;;;;;;;;;0.00;0.00;;;;;18.66;100.00;100476.25;6325591;22;44845;-88
2022/06/08 08:31:39;;;;;;;;;1.00;1.00;;;;;19.01;100.00;100469.00;6326851;22;44765;-89
2022/06/08 08:34:05;;;;;;;;;2.60;1.00;;;;;19.27;100.00;100461.66;6322258;22;46613;-88
2022/06/08 08:36:31;;;;;;;;;0.50;0.50;;;;;19.45;100.00;100460.69;6305256;22;44704;-89
2022/06/08 08:38:58;;;;;;;;;1.00;1.00;;;;;19.19;100.00;100456.25;6334903;22;44711;-88
2022/06/08 08:44:32;;;;;;;;;1.00;1.00;;;;;18.83;100.00;100462.91;6327452;22;45142;-89
2022/06/08 08:47:28;;;;;;;;;0.60;0.60;;;;;18.69;100.00;100475.94;6320789;22;44743;-88
2022/06/08 08:49:59;;;;;;;;;1.00;1.00;;;;;18.66;100.00;100470.88;6327947;22;44708;-88
2022/06/08 08:52:47;;;;;;;;;0.00;0.00;;;;;18.67;100.00;100483.31;6329949;22;45143;-90
2022/06/08 08:55:41;;;;;;;;;1.80;0.00;;;;;18.53;100.00;100493.84;6302807;22;45214;-87
2022/06/08 08:58:07;;;;;;;;;0.00;0.00;;;;;18.35;100.00;100486.69;6293379;22;44571;-89
2022/06/08 09:00:55;;;;;;;;;1.00;1.00;;;;;18.17;100.00;100499.34;6315942;22;44585;-86
2022/06/08 09:03:31;;;;;;;;;1.60;0.20;;;;;18.11;100.00;100505.34;6291446;22;45221;-87
2022/06/08 09:06:01;;;;;;;;;2.00;1.00;;;;;18.07;100.00;100504.81;6320125;22;45047;-86
2022/06/08 09:08:27;;;;;;;;;1.00;1.00;;;;;17.98;100.00;100509.28;6294477;22;44780;-86
2022/06/08 09:10:57;;;;;;;;;1.00;1.00;;;;;17.90;100.00;100514.59;6323765;22;44630;-87
2022/06/08 09:13:55;;;;;;;;;0.00;0.00;;;;;17.84;100.00;100515.22;6321432;22;45404;-90
2022/06/08 09:16:27;;;;;;;;;0.40;0.40;;;;;17.77;100.00;100516.00;6318316;22;46588;-88
2022/06/08 09:18:53;;;;;;;;;1.00;1.00;;;;;17.73;100.00;100515.44;6320814;22;44617;-87
2022/06/08 09:21:23;;;;;;;;;2.00;2.00;;;;;17.86;100.00;100515.91;6312812;22;45264;-86
2022/06/08 09:23:52;;;;;;;;;1.00;1.00;;;;;18.11;100.00;100508.88;6312851;22;44852;-89
2022/06/08 09:26:24;;;;;;;;;1.00;1.00;;;;;18.41;100.00;100494.09;6285585;22;45305;-87
2022/06/08 09:29:11;;;;;;;;;2.00;1.00;;;;;18.69;100.00;100493.94;6323033;22;44740;-87
2022/06/08 09:31:38;;;;;;;;;1.40;1.40;;;;;18.90;100.00;100483.59;6330713;22;44797;-86
2022/06/08 09:34:26;;;;;;;;;2.00;2.00;;;;;18.99;100.00;100484.47;6329955;22;44685;-87
2022/06/08 09:37:12;;;;;;;;;0.00;0.00;;;;;19.06;100.00;100482.81;6306835;22;45444;-80
2022/06/08 09:39:39;;;;;;;;;0.80;0.80;;;;;19.02;100.00;100484.16;6319619;22;44640;-81
2022/06/08 09:42:24;;;;;;;;;1.00;1.00;;;;;19.16;100.00;100488.91;6312391;22;45281;-81
2022/06/08 09:44:55;;;;;;;;;3.40;2.20;;;;;19.20;100.00;100484.03;6309560;22;45230;-81
2022/06/08 09:53:49;;;;;;;;;1.20;1.00;;;;;19.84;100.00;100473.53;6294553;22;44825;-82
2022/06/08 09:56:28;;;;;;;;;2.00;2.00;;;;;20.20;100.00;100473.97;6308120;22;45436;-82
2022/06/08 09:59:24;;;;;;;;;2.20;2.00;;;;;19.75;100.00;100461.91;6307191;22;45307;-83
2022/06/08 10:01:58;;;;;;;;;3.00;3.00;;;;;19.59;100.00;100469.97;6305344;22;45369;-82
2022/06/08 10:04:45;;;;;;;;;1.00;1.00;;;;;19.90;100.00;100462.06;6305610;22;45215;-81
2022/06/08 10:07:35;;;;;;;;;2.00;2.00;;;;;19.94;100.00;100464.25;6311865;22;44728;-82
2022/06/08 10:10:06;;;;;;;;;1.40;1.40;;;;;20.21;100.00;100454.06;6308108;22;45227;-82
2022/06/08 10:12:44;;;;;;;;;2.00;2.00;;;;;20.25;100.00;100461.66;6304305;22;45407;-82
2022/06/08 10:15:29;;;;;;;;;4.00;3.40;;;;;20.11;100.00;100443.47;6305733;22;44809;-80
2022/06/08 10:18:29;;;;;;;;;2.20;1.40;;;;;19.99;100.00;100439.47;6305452;22;44635;-83
2022/06/08 10:21:00;;;;;;;;;0.80;0.80;;;;;20.24;100.00;100427.59;6179234;23;45092;-81
2022/06/08 10:23:35;;;;;;;;;1.00;1.00;;;;;20.53;100.00;100420.78;6154876;23;45372;-81
2022/06/08 10:26:08;;;;;;;;;1.60;1.60;;;;;20.84;100.00;100425.34;6179790;23;45357;-84
2022/06/08 10:28:48;;;;;;;;;1.00;1.00;;;;;21.26;100.00;100423.06;6180971;23;44797;-83
2022/06/08 10:31:30;;;;;;;;;1.00;1.00;;;;;21.42;100.00;100426.69;6179764;23;45437;-81
2022/06/08 10:34:18;;;;;;;;;1.00;1.00;;;;;21.72;100.00;100431.19;6183808;23;45271;-82
2022/06/08 10:36:59;;;;;;;;;0.80;0.80;;;;;21.98;100.00;100421.81;5116048;27;45221;-82
2022/06/08 10:39:27;;;;;;;;;1.00;1.00;;;;;22.08;100.00;100416.97;5095760;27;44809;-81
2022/06/08 10:44:51;;;;;;;;;1.00;1.00;;;;;21.87;100.00;100422.28;5100495;27;44880;-81
2022/06/08 10:47:30;;;;;;;;;1.00;1.00;;;;;20.91;100.00;100442.56;5094110;27;45358;-81
2022/06/08 10:50:14;;;;;;;;;2.00;1.00;;;;;19.74;100.00;100447.59;5094139;27;44769;-82
2022/06/08 10:52:41;;;;;;;;;1.00;1.00;;;;;19.16;100.00;100458.44;5093893;27;44897;-80
2022/06/08 10:55:19;;;;;;;;;2.00;2.00;;;;;18.75;100.00;100448.38;5093579;27;45584;-82
2022/06/08 10:57:49;;;;;;;;;0.00;0.00;;;;;18.46;100.00;100458.66;5092961;27;45478;-83
2022/06/08 11:00:18;;;;;;;;;5.60;4.20;;;;;18.35;100.00;100480.47;5092018;27;45368;-82
2022/06/08 11:02:50;;;;;;;;;2.00;2.00;;;;;18.24;100.00;100485.09;5095790;27;44970;-80
2022/06/08 11:05:28;;;;;;;;;1.20;1.20;;;;;18.23;100.00;100479.91;5097392;27;45321;-80
2022/06/08 11:08:20;;;;;;;;;2.40;2.40;;;;;18.26;100.00;100493.00;5093922;27;45229;-83
2022/06/08 11:10:50;;;;;;;;;2.80;2.80;;;;;18.62;100.00;100487.50;5092930;27;44877;-81
2022/06/08 11:13:22;;;;;;;;;5.40;4.00;;;;;19.06;100.00;100490.91;5093556;27;45338;-80
2022/06/08 11:15:53;;;;;;;;;3.00;3.00;;;;;19.29;100.00;100474.94;5093425;27;44905;-81
2022/06/08 11:18:41;;;;;;;;;3.40;3.00;;;;;19.41;100.00;100472.78;5092513;27;45304;-82
2022/06/08 11:21:15;;;;;;;;;3.00;3.00;;;;;19.77;100.00;100467.94;5092659;27;44883;-82
2022/06/08 11:24:01;;;;;;;;;5.20;5.20;;;;;20.00;100.00;100466.25;5092692;27;45367;-81
2022/06/08 11:26:45;;;;;;;;;6.00;5.00;;;;;19.84;100.00;100465.44;5092973;27;44912;-81
2022/06/08 11:29:16;;;;;;;;;5.60;5.60;;;;;19.60;100.00;100452.81;5093963;27;45239;-81
2022/06/08 11:31:42;;;;;;;;;2.80;2.80;;;;;19.45;100.00;100466.06;5107136;27;45220;-81
2022/06/08 11:34:19;;;;;;;;;1.25;1.25;;;;;19.13;100.00;100456.06;5100402;27;45201;-81
2022/06/08 11:37:10;;;;;;;;;2.20;2.20;;;;;19.19;100.00;100453.56;5094244;27;45577;-83
2022/06/08 11:39:45;;;;;;;;;3.00;3.00;;;;;19.51;100.00;100452.75;5082103;27;45308;-81
2022/06/08 11:42:28;;;;;;;;;3.80;3.40;;;;;19.96;100.00;100450.59;5076843;28;45336;-81
2022/06/08 11:45:07;;;;;;;;;2.60;2.00;;;;;20.02;100.00;100447.22;5088638;27;44819;-82
2022/06/08 11:48:06;;;;;;;;;3.80;3.80;;;;;20.40;100.00;100444.75;5088310;27;45448;-81
2022/06/08 11:50:47;;;;;;;;;1.00;0.60;;;;;20.70;100.00;100435.06;5065717;28;45299;-80
2022/06/08 11:53:33;;;;;;;;;1.40;1.40;;;;;20.73;100.00;100430.13;5060953;28;45542;-81
2022/06/08 11:56:08;;;;;;;;;3.00;3.00;;;;;20.63;100.00;100431.38;5049705;28;44834;-82
2022/06/08 11:58:35;;;;;;;;;3.00;3.00;;;;;20.67;100.00;100438.09;5059677;28;45550;-81